createdAt,value
2023-03-24T00:01:24.544Z,2.17
2023-03-24T00:03:52.681Z,3.30
2023-03-24T00:06:22.913Z,4.32
2023-03-24T00:08:51.147Z,1.27
2023-03-24T00:11:21.432Z,2.47
2023-03-24T00:13:50.606Z,1.83
2023-03-24T00:16:20.045Z,2.72
2023-03-24T00:18:53.858Z,1.92
2023-03-24T00:21:25.088Z,3.80
2023-03-24T00:23:55.642Z,5.93
2023-03-24T00:26:25.767Z,2.60
2023-03-24T00:28:55.804Z,1.13
2023-03-24T00:31:24.886Z,0.98
2023-03-24T00:33:54.009Z,1.88
2023-03-24T00:36:24.791Z,7.00
2023-03-24T00:38:53.849Z,3.75
2023-03-24T00:41:22.432Z,2.03
2023-03-24T00:43:51.040Z,3.25
2023-03-24T00:46:28.216Z,3.28
2023-03-24T00:49:05.911Z,1.52
2023-03-24T00:51:42.464Z,1.90
2023-03-24T00:54:12.830Z,1.20
2023-03-24T00:56:41.625Z,1.85
2023-03-24T00:59:10.979Z,0.93
2023-03-24T01:01:39.766Z,1.73
2023-03-24T01:04:10.670Z,6.25
2023-03-24T01:06:39.559Z,0.93
2023-03-24T01:09:08.036Z,2.25
2023-03-24T01:11:38.951Z,3.25
2023-03-24T01:14:07.936Z,1.15
2023-03-24T01:16:36.228Z,1.48
2023-03-24T01:19:04.874Z,3.80
2023-03-24T01:21:35.370Z,0.80
2023-03-24T01:24:05.295Z,2.53
2023-03-24T01:26:33.172Z,2.70
2023-03-24T01:29:00.994Z,0.90
2023-03-24T01:31:28.820Z,1.45
2023-03-24T01:33:56.760Z,0.17
2023-03-24T01:36:24.629Z,3.15
2023-03-24T01:38:53.038Z,0.65
2023-03-24T01:41:20.979Z,0.38
2023-03-24T01:43:48.804Z,1.50
2023-03-24T01:46:21.988Z,0.43
2023-03-24T01:49:01.704Z,1.00
2023-03-24T01:51:42.199Z,3.20
2023-03-24T01:54:24.983Z,1.40
2023-03-24T01:57:02.700Z,0.10
2023-03-24T01:59:36.101Z,0.65
2023-03-24T02:02:13.930Z,0.90
2023-03-24T02:04:54.943Z,0.40
2023-03-24T02:07:54.036Z,0.40
2023-03-24T02:10:23.900Z,1.65
2023-03-24T02:12:52.022Z,0.50
2023-03-24T02:15:20.665Z,0.57
2023-03-24T02:18:00.626Z,1.35
2023-03-24T02:20:50.170Z,1.08
2023-03-24T02:23:41.480Z,1.05
2023-03-24T02:26:30.339Z,0.10
2023-03-24T02:29:56.933Z,0.73
2023-03-24T02:32:24.840Z,0.63
2023-03-24T02:35:17.437Z,0.85
2023-03-24T02:37:58.409Z,0.20
2023-03-24T02:40:47.370Z,0.65
2023-03-24T02:43:41.795Z,0.00
2023-03-24T02:46:18.508Z,1.73
2023-03-24T02:48:58.570Z,1.27
2023-03-24T02:51:42.784Z,1.00
2023-03-24T02:54:35.067Z,1.60
2023-03-24T02:57:30.288Z,1.80
2023-03-24T03:00:32.500Z,0.45
2023-03-24T03:03:39.847Z,0.40
2023-03-24T03:06:22.295Z,0.75
2023-03-24T03:08:51.562Z,0.50
2023-03-24T03:11:19.591Z,2.33
2023-03-24T03:14:08.810Z,0.60
2023-03-24T03:17:00.229Z,1.00
2023-03-24T03:19:35.952Z,1.95
2023-03-24T03:22:07.643Z,1.27
2023-03-24T03:24:42.562Z,1.70
2023-03-24T03:27:29.513Z,0.47
2023-03-24T03:30:23.584Z,0.65
2023-03-24T03:33:04.181Z,1.35
2023-03-24T03:35:39.337Z,1.67
2023-03-24T03:38:28.941Z,0.77
2023-03-24T03:41:00.818Z,0.88
2023-03-24T03:43:34.702Z,2.40
2023-03-24T03:46:06.632Z,0.40
2023-03-24T03:48:39.405Z,0.73
2023-03-24T03:51:13.979Z,0.63
2023-03-24T03:54:01.356Z,0.80
2023-03-24T03:56:34.647Z,1.13
2023-03-24T03:59:31.142Z,1.75
2023-03-24T04:02:16.796Z,0.47
2023-03-24T04:05:20.192Z,1.27
2023-03-24T04:08:12.530Z,0.52
2023-03-24T04:11:17.981Z,0.63
2023-03-24T04:14:34.804Z,1.30
2023-03-24T04:17:50.148Z,1.38
2023-03-24T04:20:47.776Z,0.52
2023-03-24T04:23:44.727Z,0.10
2023-03-24T04:26:28.799Z,0.75
2023-03-24T04:29:26.118Z,1.17
2023-03-24T04:32:03.018Z,1.02
2023-03-24T04:34:42.402Z,0.60
2023-03-24T04:37:38.176Z,1.73
2023-03-24T04:40:18.158Z,0.20
2023-03-24T04:42:55.852Z,0.75
2023-03-24T04:45:29.027Z,2.92
2023-03-24T04:48:19.239Z,0.40
2023-03-24T04:51:11.164Z,0.77
2023-03-24T04:53:51.112Z,0.98
2023-03-24T04:56:43.032Z,2.60
2023-03-24T04:59:17.810Z,2.60
2023-03-24T05:01:52.418Z,2.45
2023-03-24T05:04:30.742Z,0.43
2023-03-24T05:07:08.795Z,0.65
2023-03-24T05:09:36.711Z,0.20
2023-03-24T05:12:04.820Z,2.65
2023-03-24T05:14:43.449Z,1.38
2023-03-24T05:17:11.250Z,0.82
2023-03-24T05:19:39.957Z,1.85
2023-03-24T05:22:07.947Z,2.75
2023-03-24T05:24:36.115Z,0.35
2023-03-24T05:27:03.923Z,0.52
2023-03-24T05:29:31.705Z,0.10
2023-03-24T05:31:59.863Z,1.75
2023-03-24T05:34:27.625Z,0.90
2023-03-24T05:37:14.428Z,0.63
2023-03-24T05:39:42.200Z,1.45
2023-03-24T05:42:23.544Z,0.90
2023-03-24T05:44:51.608Z,1.48
2023-03-24T05:50:08.706Z,0.08
2023-03-24T05:52:36.697Z,1.25
2023-03-24T05:55:31.124Z,2.67
2023-03-24T05:58:07.271Z,0.35
2023-03-24T06:00:45.136Z,0.73
2023-03-24T06:03:19.580Z,1.30
2023-03-24T06:05:58.591Z,1.85
2023-03-24T06:08:28.765Z,3.28
2023-03-24T06:11:02.485Z,1.60
2023-03-24T06:13:32.796Z,3.50
2023-03-24T06:16:03.542Z,1.40
2023-03-24T06:18:40.628Z,3.05
2023-03-24T06:21:18.780Z,1.08
2023-03-24T06:23:47.596Z,1.92
2023-03-24T06:26:20.061Z,1.95
2023-03-24T06:28:52.816Z,2.35
2023-03-24T06:31:22.602Z,1.70
2023-03-24T06:33:53.037Z,3.03
2023-03-24T06:36:21.210Z,4.82
2023-03-24T06:38:50.443Z,2.28
2023-03-24T06:41:20.844Z,1.08
2023-03-24T06:43:52.655Z,1.13
2023-03-24T06:46:20.690Z,1.65
2023-03-24T06:48:49.343Z,1.23
2023-03-24T06:51:17.810Z,1.05
2023-03-24T06:53:46.982Z,2.03
2023-03-24T06:56:17.743Z,1.73
2023-03-24T06:58:50.500Z,0.82
2023-03-24T07:01:27.554Z,2.78
2023-03-24T07:04:15.736Z,5.25
2023-03-24T07:07:05.623Z,1.85
2023-03-24T07:09:41.148Z,2.55
2023-03-24T07:12:09.068Z,6.45
2023-03-24T07:14:38.360Z,3.33
2023-03-24T07:17:07.592Z,3.20
2023-03-24T07:19:45.883Z,3.78
2023-03-24T07:22:37.283Z,3.10
2023-03-24T07:25:43.274Z,2.92
2023-03-24T07:28:19.505Z,4.18
2023-03-24T07:30:47.879Z,1.58
2023-03-24T07:33:15.773Z,5.07
2023-03-24T07:35:46.334Z,3.60
2023-03-24T07:38:14.248Z,3.78
2023-03-24T07:40:42.251Z,4.28
2023-03-24T07:43:10.169Z,2.83
2023-03-24T07:45:58.737Z,4.55
2023-03-24T07:48:30.146Z,7.78
2023-03-24T07:50:58.294Z,2.22
2023-03-24T07:53:49.474Z,2.78
2023-03-24T07:56:27.751Z,2.72
2023-03-24T07:58:58.809Z,2.80
2023-03-24T08:01:56.934Z,4.97
2023-03-24T08:04:47.204Z,5.97
2023-03-24T08:07:53.629Z,3.33
2023-03-24T08:10:27.715Z,3.53
2023-03-24T08:15:25.242Z,6.03
2023-03-24T08:17:53.459Z,2.90
2023-03-24T08:20:21.930Z,5.65
2023-03-24T08:22:50.310Z,3.60
2023-03-24T08:25:20.623Z,2.72
2023-03-24T08:27:49.456Z,4.78
2023-03-24T08:30:23.510Z,3.97
2023-03-24T08:32:55.143Z,3.65
2023-03-24T08:35:27.361Z,4.55
2023-03-24T08:37:55.650Z,5.47
2023-03-24T08:40:24.938Z,5.85
2023-03-24T08:42:58.704Z,4.15
2023-03-24T08:45:30.685Z,5.20
2023-03-24T08:48:01.558Z,7.25
2023-03-24T08:50:34.706Z,4.55
2023-03-24T08:53:04.303Z,3.38
2023-03-24T08:55:32.510Z,2.05
2023-03-24T08:58:01.206Z,4.45
2023-03-24T09:00:29.456Z,1.00
2023-03-24T09:02:58.617Z,1.30
2023-03-24T09:05:43.256Z,1.48
2023-03-24T09:08:13.979Z,0.65
2023-03-24T09:10:43.374Z,1.15
2023-03-24T09:13:11.124Z,2.45
2023-03-24T09:15:39.025Z,0.20
2023-03-24T09:18:06.896Z,1.00
2023-03-24T09:20:34.600Z,1.98
2023-03-24T09:23:02.290Z,1.95
2023-03-24T09:25:30.069Z,0.60
2023-03-24T09:27:57.740Z,0.63
2023-03-24T09:30:25.471Z,1.85
2023-03-24T09:32:53.355Z,1.42
2023-03-24T09:35:21.095Z,0.50
2023-03-24T09:37:48.918Z,1.85
2023-03-24T09:40:27.884Z,2.53
2023-03-24T09:43:07.069Z,0.80
2023-03-24T09:45:37.995Z,1.13
2023-03-24T09:48:18.780Z,2.65
2023-03-24T09:50:55.108Z,1.88
2023-03-24T09:54:01.110Z,0.20
2023-03-24T09:56:32.621Z,1.08
2023-03-24T09:59:05.604Z,1.25
2023-03-24T10:01:36.324Z,0.45
2023-03-24T10:04:05.516Z,0.85
2023-03-24T10:06:42.193Z,0.38
2023-03-24T10:09:34.272Z,0.25
2023-03-24T10:12:35.808Z,1.92
2023-03-24T10:15:37.587Z,0.00
2023-03-24T10:18:45.499Z,0.63
2023-03-24T10:21:27.950Z,1.17
2023-03-24T10:24:19.515Z,0.38
2023-03-24T10:27:01.487Z,0.10
2023-03-24T10:29:33.035Z,0.00
2023-03-24T10:32:02.768Z,0.00
2023-03-24T10:34:33.203Z,0.00
2023-03-24T10:37:03.409Z,0.20
2023-03-24T10:39:42.063Z,0.10
2023-03-24T10:42:22.251Z,0.15
2023-03-24T10:44:51.845Z,2.30
2023-03-24T10:47:25.468Z,0.10
2023-03-24T10:50:14.445Z,0.00
2023-03-24T10:52:47.467Z,0.00
2023-03-24T10:55:20.311Z,0.00
2023-03-24T10:57:51.189Z,0.57
2023-03-24T11:00:29.944Z,0.17
2023-03-24T11:03:02.257Z,0.00
2023-03-24T11:05:38.611Z,0.00
2023-03-24T11:08:45.260Z,0.00
2023-03-24T11:11:29.869Z,1.45
2023-03-24T11:14:01.727Z,0.52
2023-03-24T11:16:38.011Z,0.05
2023-03-24T11:19:18.799Z,0.03
2023-03-24T11:21:49.629Z,0.00
2023-03-24T11:24:20.424Z,0.00
2023-03-24T11:27:03.885Z,0.00
2023-03-24T11:29:34.446Z,0.00
2023-03-24T11:32:03.936Z,0.00
2023-03-24T11:34:39.001Z,0.03
2023-03-24T11:37:14.482Z,1.45
2023-03-24T11:39:42.420Z,0.00
2023-03-24T11:42:18.431Z,0.00
2023-03-24T11:44:51.884Z,0.10
2023-03-24T11:47:25.005Z,0.00
2023-03-24T11:49:59.144Z,0.05
2023-03-24T11:52:34.878Z,0.00
2023-03-24T11:55:13.213Z,0.10
2023-03-24T11:58:17.222Z,0.00
2023-03-24T12:00:54.592Z,0.00
2023-03-24T12:03:51.047Z,0.00
2023-03-24T12:06:28.408Z,0.00
2023-03-24T12:08:56.282Z,0.00
2023-03-24T12:11:45.102Z,0.38
2023-03-24T12:14:18.173Z,0.03
2023-03-24T12:17:03.739Z,0.65
2023-03-24T12:19:34.872Z,0.55
2023-03-24T12:22:21.808Z,1.05
2023-03-24T12:25:18.303Z,0.22
2023-03-24T12:28:06.444Z,0.43
2023-03-24T12:30:55.395Z,0.00
2023-03-24T12:33:41.936Z,0.05
2023-03-24T12:36:37.317Z,0.20
2023-03-24T12:39:29.358Z,0.10
2023-03-24T12:42:32.264Z,0.22
2023-03-24T12:45:11.927Z,0.32
2023-03-24T12:47:59.147Z,0.00
2023-03-24T12:51:08.503Z,0.20
2023-03-24T12:54:12.328Z,0.20
2023-03-24T12:56:53.441Z,0.32
2023-03-24T12:59:47.339Z,0.20
2023-03-24T13:02:51.209Z,0.10
2023-03-24T13:05:24.040Z,0.00
2023-03-24T13:07:58.493Z,0.28
2023-03-24T13:10:29.888Z,0.45
2023-03-24T13:13:13.571Z,0.32
2023-03-24T13:15:53.822Z,0.35
2023-03-24T13:18:31.395Z,0.10
2023-03-24T13:21:30.032Z,0.00
2023-03-24T13:24:11.114Z,0.00
2023-03-24T13:27:17.005Z,0.03
2023-03-24T13:30:07.441Z,0.15
2023-03-24T13:32:51.807Z,0.00
2023-03-24T13:35:40.093Z,0.63
2023-03-24T13:38:53.550Z,0.17
2023-03-24T13:41:24.839Z,0.13
2023-03-24T13:44:01.386Z,0.60
2023-03-24T13:46:30.011Z,0.77
2023-03-24T13:49:02.866Z,0.45
2023-03-24T13:51:33.775Z,0.15
2023-03-24T13:54:13.222Z,1.13
2023-03-24T13:57:03.521Z,0.20
2023-03-24T13:59:31.650Z,0.00
2023-03-24T14:02:18.303Z,0.52
2023-03-24T14:04:55.452Z,0.30
2023-03-24T14:07:44.187Z,0.00
2023-03-24T14:10:15.328Z,0.20
2023-03-24T14:13:02.212Z,0.40
2023-03-24T14:15:46.604Z,0.13
2023-03-24T14:20:57.800Z,0.00
2023-03-24T14:23:48.815Z,0.25
2023-03-24T14:26:34.349Z,0.10
2023-03-24T14:29:02.823Z,0.00
2023-03-24T14:31:33.312Z,0.65
2023-03-24T14:34:15.147Z,0.82
2023-03-24T14:36:45.305Z,0.08
2023-03-24T14:39:28.142Z,0.40
2023-03-24T14:41:57.947Z,0.20
2023-03-24T14:44:45.206Z,0.00
2023-03-24T14:47:24.198Z,0.00
2023-03-24T14:49:54.029Z,0.43
2023-03-24T14:52:43.251Z,0.05
2023-03-24T14:55:16.756Z,0.60
2023-03-24T14:57:51.844Z,0.00
2023-03-24T15:00:35.015Z,0.00
2023-03-24T15:03:23.709Z,0.00
2023-03-24T15:05:51.552Z,0.17
2023-03-24T15:08:22.554Z,0.60
2023-03-24T15:11:01.442Z,0.20
2023-03-24T15:14:01.526Z,0.00
2023-03-24T15:16:31.567Z,0.38
2023-03-24T15:19:10.390Z,0.00
2023-03-24T15:21:41.251Z,0.00
2023-03-24T15:24:38.564Z,0.10
2023-03-24T15:27:09.120Z,0.30
2023-03-24T15:29:39.140Z,0.30
2023-03-24T15:32:07.814Z,0.00
2023-03-24T15:34:40.315Z,0.43
2023-03-24T15:37:41.798Z,0.00
2023-03-24T15:40:28.087Z,0.15
2023-03-24T15:42:58.317Z,0.10
2023-03-24T15:45:57.848Z,0.00
2023-03-24T15:48:35.349Z,0.88
2023-03-24T15:53:44.631Z,0.52
2023-03-24T15:56:12.454Z,0.40
2023-03-24T15:58:48.746Z,0.22
2023-03-24T16:01:21.181Z,0.10
2023-03-24T16:03:49.220Z,0.13
2023-03-24T16:06:30.160Z,0.30
2023-03-24T16:09:27.965Z,0.05
2023-03-24T16:11:56.193Z,0.08
2023-03-24T16:14:26.633Z,0.52
2023-03-24T16:16:57.047Z,0.10
2023-03-24T16:19:25.351Z,0.15
2023-03-24T16:21:54.913Z,0.25
2023-03-24T16:24:23.243Z,0.30
2023-03-24T16:26:51.200Z,0.38
2023-03-24T16:29:21.968Z,0.05
2023-03-24T16:31:52.990Z,0.00
2023-03-24T16:34:22.357Z,0.00
2023-03-24T16:36:52.610Z,1.35
2023-03-24T16:39:25.904Z,0.30
2023-03-24T16:41:54.130Z,0.17
2023-03-24T16:44:22.074Z,0.63
2023-03-24T16:46:54.007Z,0.00
2023-03-24T16:49:23.859Z,0.52
2023-03-24T16:51:53.301Z,0.15
2023-03-24T16:54:21.190Z,0.13
2023-03-24T16:56:49.256Z,0.00
2023-03-24T16:59:17.281Z,0.63
2023-03-24T17:01:46.453Z,0.40
2023-03-24T17:04:14.249Z,1.02
2023-03-24T17:06:44.472Z,0.08
2023-03-24T17:09:12.769Z,0.98
2023-03-24T17:11:44.343Z,0.20
2023-03-24T17:14:14.927Z,0.90
2023-03-24T17:16:45.632Z,1.58
2023-03-24T17:19:19.266Z,0.00
2023-03-24T17:22:02.954Z,0.80
2023-03-24T17:24:38.249Z,1.13
2023-03-24T17:27:21.441Z,0.10
2023-03-24T17:29:49.300Z,0.00
2023-03-24T17:32:17.224Z,0.25
2023-03-24T17:34:48.038Z,1.48
2023-03-24T17:37:16.054Z,0.70
2023-03-24T17:39:44.270Z,0.10
2023-03-24T17:42:12.032Z,0.00
2023-03-24T17:44:39.894Z,0.10
2023-03-24T17:47:07.776Z,0.20
2023-03-24T17:49:35.673Z,0.32
2023-03-24T17:52:03.572Z,0.93
2023-03-24T17:54:31.340Z,0.85
2023-03-24T17:56:59.130Z,0.00
2023-03-24T17:59:27.154Z,0.55
2023-03-24T18:01:54.947Z,0.10
2023-03-24T18:04:23.981Z,0.00
2023-03-24T18:06:51.747Z,0.08
2023-03-24T18:09:19.469Z,1.17
2023-03-24T18:11:47.884Z,0.08
2023-03-24T18:14:15.790Z,0.00
2023-03-24T18:16:43.646Z,1.35
2023-03-24T18:19:11.521Z,0.52
2023-03-24T18:21:40.288Z,0.10
2023-03-24T18:24:09.009Z,0.22
2023-03-24T18:26:37.115Z,0.40
2023-03-24T18:29:05.975Z,1.00
2023-03-24T18:31:33.826Z,0.95
2023-03-24T18:34:01.864Z,0.45
2023-03-24T18:36:31.242Z,0.40
2023-03-24T18:39:02.642Z,0.10
2023-03-24T18:41:31.225Z,0.70
2023-03-24T18:43:59.816Z,0.05
2023-03-24T18:46:27.686Z,0.85
2023-03-24T18:48:55.956Z,0.98
2023-03-24T18:51:27.815Z,0.00
2023-03-24T18:53:56.233Z,0.00
2023-03-24T18:56:24.813Z,0.13
2023-03-24T18:58:52.942Z,0.90
2023-03-24T19:01:24.462Z,0.30
2023-03-24T19:03:53.097Z,0.38
2023-03-24T19:06:21.578Z,0.00
2023-03-24T19:08:53.501Z,0.68
2023-03-24T19:11:21.398Z,0.30
2023-03-24T19:13:51.081Z,0.10
2023-03-24T19:16:20.225Z,0.55
2023-03-24T19:18:48.744Z,1.17
2023-03-24T19:21:17.379Z,0.20
2023-03-24T19:23:47.043Z,0.30
2023-03-24T19:26:20.368Z,0.15
2023-03-24T19:28:48.421Z,1.17
2023-03-24T19:31:18.676Z,0.68
2023-03-24T19:33:47.549Z,0.08
2023-03-24T19:36:15.886Z,0.20
2023-03-24T19:38:44.382Z,2.55
2023-03-24T19:41:14.347Z,0.08
2023-03-24T19:43:42.642Z,0.00
2023-03-24T19:46:10.508Z,0.10
2023-03-24T19:48:38.432Z,0.68
2023-03-24T19:51:06.442Z,0.30
2023-03-24T19:53:34.290Z,0.20
2023-03-24T19:56:03.432Z,0.00
2023-03-24T19:58:31.906Z,0.00
2023-03-24T20:00:59.896Z,0.05
2023-03-24T20:03:29.033Z,0.70
2023-03-24T20:05:57.108Z,0.43
2023-03-24T20:08:26.266Z,0.00
2023-03-24T20:10:54.522Z,0.20
2023-03-24T20:13:24.164Z,0.20
2023-03-24T20:15:52.310Z,0.40
2023-03-24T20:18:20.605Z,0.25
2023-03-24T20:20:48.427Z,1.27
2023-03-24T20:23:16.356Z,0.73
2023-03-24T20:25:44.523Z,0.32
2023-03-24T20:28:13.363Z,0.38
2023-03-24T20:30:45.272Z,0.22
2023-03-24T20:33:13.861Z,0.52
2023-03-24T20:35:42.110Z,0.00
2023-03-24T20:38:09.940Z,0.45
2023-03-24T20:40:37.613Z,0.00
2023-03-24T20:43:05.509Z,0.60
2023-03-24T20:45:33.587Z,0.00
2023-03-24T20:48:01.838Z,0.10
2023-03-24T20:50:30.198Z,0.10
2023-03-24T20:52:57.909Z,0.57
2023-03-24T20:55:26.219Z,0.10
2023-03-24T20:57:54.014Z,0.52
2023-03-24T21:00:21.834Z,0.38
2023-03-24T21:02:49.687Z,0.08
2023-03-24T21:05:17.605Z,1.15
2023-03-24T21:07:45.725Z,0.25
2023-03-24T21:10:14.657Z,0.10
2023-03-24T21:12:52.261Z,0.10
2023-03-24T21:15:25.404Z,0.00
2023-03-24T21:17:53.605Z,0.00
2023-03-24T21:20:21.972Z,0.40
2023-03-24T21:22:56.110Z,0.00
2023-03-24T21:27:53.846Z,0.17
2023-03-24T21:30:21.857Z,0.00
2023-03-24T21:32:51.628Z,0.00
2023-03-24T21:35:22.811Z,0.10
2023-03-24T21:37:53.706Z,0.35
2023-03-24T21:40:24.405Z,0.00
2023-03-24T21:42:54.089Z,1.15
2023-03-24T21:45:23.534Z,0.20
2023-03-24T21:47:55.233Z,1.10
2023-03-24T21:50:23.754Z,0.57
2023-03-24T21:52:53.674Z,0.00
2023-03-24T21:55:22.848Z,0.68
2023-03-24T21:57:52.056Z,0.10
2023-03-24T22:00:22.659Z,0.10
2023-03-24T22:02:53.495Z,0.17
2023-03-24T22:05:23.432Z,0.32
2023-03-24T22:07:52.849Z,0.00
2023-03-24T22:10:23.076Z,0.10
2023-03-24T22:12:52.670Z,0.20
2023-03-24T22:15:21.627Z,0.57
2023-03-24T22:17:50.601Z,0.15
2023-03-24T22:20:18.523Z,0.10
2023-03-24T22:22:46.727Z,1.08
2023-03-24T22:25:17.920Z,0.85
2023-03-24T22:27:50.649Z,1.02
2023-03-24T22:30:20.048Z,0.00
2023-03-24T22:32:47.855Z,0.10
2023-03-24T22:35:15.845Z,0.90
2023-03-24T22:37:43.627Z,0.60
2023-03-24T22:40:11.369Z,0.28
2023-03-24T22:42:39.166Z,0.00
2023-03-24T22:45:08.113Z,0.00
2023-03-24T22:47:38.345Z,0.20
2023-03-24T22:50:08.302Z,1.38
2023-03-24T22:52:36.186Z,0.00
2023-03-24T22:55:04.191Z,0.55
2023-03-24T22:57:32.070Z,0.17
2023-03-24T23:00:02.049Z,0.00
2023-03-24T23:02:30.870Z,0.00
2023-03-24T23:04:58.940Z,1.17
2023-03-24T23:07:28.370Z,0.00
2023-03-24T23:09:59.484Z,0.20
2023-03-24T23:12:27.485Z,0.00
2023-03-24T23:14:55.237Z,0.98
2023-03-24T23:17:25.706Z,0.20
2023-03-24T23:19:54.091Z,0.40
2023-03-24T23:22:21.996Z,0.00
2023-03-24T23:25:00.733Z,0.10
2023-03-24T23:27:37.491Z,1.65
2023-03-24T23:30:09.842Z,0.65
2023-03-24T23:32:38.842Z,0.10
2023-03-24T23:35:08.222Z,2.10
2023-03-24T23:37:37.000Z,0.00
2023-03-24T23:40:15.790Z,0.43
2023-03-24T23:42:47.936Z,0.28
2023-03-24T23:45:19.447Z,0.08
2023-03-24T23:47:50.412Z,0.73
2023-03-24T23:50:21.673Z,0.10
2023-03-24T23:52:49.395Z,0.45
2023-03-24T23:55:18.376Z,0.60
2023-03-24T23:57:46.893Z,0.03
